Time;durP1;ratioP1;P1;durP2;ratioP2;P2;SDS_P1;SDS_P2;PMS_P1;PMS_P2;Temp;Humidity;BMP_temperature;BMP_pressure;BME280_temperature;BME280_humidity;BME280_pressure;Samples;Min_cycle;Max_cycle;Signal;HPM_P1;HPM_P2
2023/02/06 00:00:22;;;;;;;11.47;6.87;;;;;;;;;;5081204;28;20038;-67
2023/02/06 00:02:48;;;;;;;12.70;6.70;;;;;;;;;;5081242;28;20027;-67
2023/02/06 00:05:14;;;;;;;13.20;7.20;;;;;;;;;;5081179;28;20039;-67
2023/02/06 00:07:39;;;;;;;11.43;6.30;;;;;;;;;;5098260;27;20023;-67
2023/02/06 00:10:05;;;;;;;10.53;6.43;;;;;;;;;;5084189;27;20240;-67
2023/02/06 00:12:31;;;;;;;11.83;6.33;;;;;;;;;;5084983;27;20613;-67
2023/02/06 00:14:56;;;;;;;11.33;6.00;;;;;;;;;;5085036;27;20054;-67
2023/02/06 00:17:22;;;;;;;10.97;5.83;;;;;;;;;;5084877;27;20039;-67
2023/02/06 00:19:47;;;;;;;10.67;5.87;;;;;;;;;;5084825;27;20388;-67
2023/02/06 00:22:13;;;;;;;11.93;5.90;;;;;;;;;;5085032;27;20022;-67
2023/02/06 00:24:41;;;;;;;11.33;6.10;;;;;;;;;;5085027;27;20453;-67
2023/02/06 00:27:07;;;;;;;10.53;5.83;;;;;;;;;;5084872;27;20115;-67
2023/02/06 00:29:33;;;;;;;10.33;5.73;;;;;;;;;;5084680;27;20081;-67
2023/02/06 00:31:58;;;;;;;9.60;5.70;;;;;;;;;;5084743;27;20122;-67
2023/02/06 00:34:24;;;;;;;10.67;5.73;;;;;;;;;;5084331;27;20035;-67
2023/02/06 00:36:50;;;;;;;9.80;5.57;;;;;;;;;;5084290;27;20043;-67
2023/02/06 00:39:16;;;;;;;8.80;5.30;;;;;;;;;;5084351;27;20046;-67
2023/02/06 00:41:42;;;;;;;9.37;5.53;;;;;;;;;;5084831;27;20111;-67
2023/02/06 00:44:09;;;;;;;11.80;5.93;;;;;;;;;;5085044;27;20454;-67
2023/02/06 00:46:35;;;;;;;10.90;5.63;;;;;;;;;;5101740;27;20110;-67
2023/02/06 00:49:01;;;;;;;10.80;5.43;;;;;;;;;;5101283;27;20043;-67
2023/02/06 00:51:27;;;;;;;9.70;6.00;;;;;;;;;;5084579;27;20107;-67
2023/02/06 00:53:53;;;;;;;8.17;4.67;;;;;;;;;;5084070;27;20042;-67
2023/02/06 00:56:18;;;;;;;9.83;5.50;;;;;;;;;;5084091;27;20083;-67
2023/02/06 00:58:45;;;;;;;9.63;5.67;;;;;;;;;;5101271;27;20041;-67
2023/02/06 01:01:11;;;;;;;10.67;6.07;;;;;;;;;;5084548;27;20452;-67
2023/02/06 01:03:37;;;;;;;9.37;5.83;;;;;;;;;;5083985;27;20035;-67
2023/02/06 01:06:03;;;;;;;9.13;5.20;;;;;;;;;;5084122;27;20035;-67
2023/02/06 01:08:29;;;;;;;8.83;5.50;;;;;;;;;;5084050;27;20035;-67
2023/02/06 01:10:58;;;;;;;9.27;5.13;;;;;;;;;;5084695;27;20042;-67
2023/02/06 01:13:23;;;;;;;11.57;5.90;;;;;;;;;;5083782;27;20027;-67
2023/02/06 01:15:49;;;;;;;10.17;5.80;;;;;;;;;;5083686;27;20517;-67
2023/02/06 01:18:15;;;;;;;10.40;5.60;;;;;;;;;;5083966;27;20035;-67
2023/02/06 01:20:40;;;;;;;12.60;5.97;;;;;;;;;;5082780;27;20031;-67
2023/02/06 01:23:06;;;;;;;13.00;5.67;;;;;;;;;;5083671;27;20358;-67
2023/02/06 01:25:31;;;;;;;11.27;5.30;;;;;;;;;;5083698;27;20027;-67
2023/02/06 01:27:57;;;;;;;11.83;5.93;;;;;;;;;;5083660;27;20067;-67
2023/02/06 01:30:23;;;;;;;11.17;5.57;;;;;;;;;;5100442;27;20030;-67
2023/02/06 01:32:48;;;;;;;13.10;5.37;;;;;;;;;;5100243;27;20034;-67
2023/02/06 01:35:14;;;;;;;8.30;5.43;;;;;;;;;;5100768;27;20035;-67
2023/02/06 01:37:40;;;;;;;8.90;5.40;;;;;;;;;;5083413;27;20397;-67
2023/02/06 01:40:10;;;;;;;10.87;6.20;;;;;;;;;;5083227;27;20172;-67
2023/02/06 01:42:36;;;;;;;10.33;5.77;;;;;;;;;;5083343;27;20035;-67
2023/02/06 01:45:20;;;;;;;11.40;6.20;;;;;;;;;;5083531;27;20038;-67
2023/02/06 01:47:47;;;;;;;9.93;5.47;;;;;;;;;;5100353;27;20480;-67
2023/02/06 01:50:13;;;;;;;11.17;5.80;;;;;;;;;;5100201;27;20383;-67
2023/02/06 01:52:38;;;;;;;8.77;5.13;;;;;;;;;;5083266;27;20035;-67
2023/02/06 01:55:04;;;;;;;9.97;5.40;;;;;;;;;;5099960;27;20045;-67
2023/02/06 01:57:30;;;;;;;9.93;5.40;;;;;;;;;;5083634;27;20131;-67
2023/02/06 01:59:59;;;;;;;9.00;5.33;;;;;;;;;;5083638;27;20428;-66
2023/02/06 02:02:27;;;;;;;9.10;5.77;;;;;;;;;;5083853;27;20043;-67
2023/02/06 02:04:53;;;;;;;11.40;5.80;;;;;;;;;;5083966;27;20062;-67
2023/02/06 02:07:24;;;;;;;13.07;5.23;;;;;;;;;;5083732;27;20035;-67
2023/02/06 02:09:51;;;;;;;10.87;6.00;;;;;;;;;;5100372;27;20039;-67
2023/02/06 02:12:17;;;;;;;11.33;5.53;;;;;;;;;;5117261;27;20358;-68
2023/02/06 02:14:44;;;;;;;12.37;5.67;;;;;;;;;;5083033;27;20050;-67
2023/02/06 02:17:28;;;;;;;11.43;5.90;;;;;;;;;;5116636;27;20133;-67
2023/02/06 02:20:15;;;;;;;11.07;5.83;;;;;;;;;;5082672;27;20417;-67
2023/02/06 02:22:56;;;;;;;13.37;5.70;;;;;;;;;;5099411;27;20080;-67
2023/02/06 02:25:49;;;;;;;11.77;6.20;;;;;;;;;;5099604;27;20035;-67
2023/02/06 02:28:33;;;;;;;10.27;5.67;;;;;;;;;;5099628;27;20031;-67
2023/02/06 02:31:14;;;;;;;10.33;5.40;;;;;;;;;;5099011;27;20027;-67
2023/02/06 02:34:03;;;;;;;10.38;6.07;;;;;;;;;;5116286;27;20047;-67
2023/02/06 02:36:33;;;;;;;8.90;5.07;;;;;;;;;;5052603;27;20070;-67
2023/02/06 02:39:07;;;;;;;12.37;5.97;;;;;;;;;;5099303;27;20039;-67
2023/02/06 02:41:57;;;;;;;10.10;5.47;;;;;;;;;;5082157;27;20277;-67
2023/02/06 02:44:41;;;;;;;10.63;5.53;;;;;;;;;;5082191;27;20035;-67
2023/02/06 02:47:10;;;;;;;11.93;6.40;;;;;;;;;;5082139;27;20064;-67
2023/02/06 02:49:38;;;;;;;10.43;6.30;;;;;;;;;;5082351;27;20031;-67
2023/02/06 02:52:04;;;;;;;11.50;6.67;;;;;;;;;;5081960;27;20053;-67
2023/02/06 02:54:30;;;;;;;11.57;6.70;;;;;;;;;;5082084;27;20504;-67
2023/02/06 02:57:03;;;;;;;11.27;6.00;;;;;;;;;;5082001;27;20058;-67
2023/02/06 02:59:32;;;;;;;11.07;6.33;;;;;;;;;;5098699;27;20065;-67
2023/02/06 03:02:37;;;;;;;12.60;6.83;;;;;;;;;;5081931;27;20480;-67
2023/02/06 03:05:09;;;;;;;11.63;6.30;;;;;;;;;;4997802;28;20049;-67
2023/02/06 03:07:43;;;;;;;8.43;5.43;;;;;;;;;;4997804;28;20438;-67
2023/02/06 03:10:29;;;;;;;10.00;5.53;;;;;;;;;;5055384;27;20133;-67
2023/02/06 03:13:02;;;;;;;10.73;5.60;;;;;;;;;;5080949;27;20042;-67
2023/02/06 03:15:30;;;;;;;9.87;5.73;;;;;;;;;;5115319;27;20059;-67
2023/02/06 03:18:02;;;;;;;13.17;6.43;;;;;;;;;;5081566;27;20035;-67
2023/02/06 03:20:29;;;;;;;10.23;5.83;;;;;;;;;;5081652;27;20026;-67
2023/02/06 03:22:55;;;;;;;9.67;5.67;;;;;;;;;;5098627;27;20039;-67
2023/02/06 03:25:29;;;;;;;9.10;5.57;;;;;;;;;;5081787;27;20445;-67
2023/02/06 03:27:56;;;;;;;14.37;5.70;;;;;;;;;;5081533;27;20047;-67
2023/02/06 03:30:22;;;;;;;9.93;5.70;;;;;;;;;;5098506;27;20034;-67
2023/02/06 03:32:51;;;;;;;11.47;6.43;;;;;;;;;;5115454;27;20078;-66
2023/02/06 03:35:18;;;;;;;9.13;5.33;;;;;;;;;;5081509;28;20031;-67
2023/02/06 03:37:45;;;;;;;9.10;5.40;;;;;;;;;;5081269;28;20091;-66
2023/02/06 03:40:11;;;;;;;9.87;6.23;;;;;;;;;;5081380;27;20468;-67
2023/02/06 03:42:39;;;;;;;9.80;5.70;;;;;;;;;;5080907;27;20461;-67
2023/02/06 03:45:25;;;;;;;9.77;5.67;;;;;;;;;;5097588;28;20035;-67
2023/02/06 03:47:52;;;;;;;9.07;5.50;;;;;;;;;;5080812;28;20039;-66
2023/02/06 03:50:18;;;;;;;7.90;4.97;;;;;;;;;;5098268;28;20030;-66
2023/02/06 03:52:46;;;;;;;9.73;5.43;;;;;;;;;;5098425;28;20042;-67
2023/02/06 03:55:13;;;;;;;10.70;5.37;;;;;;;;;;5081316;28;20129;-67
2023/02/06 03:57:40;;;;;;;8.70;5.37;;;;;;;;;;5081127;28;20039;-67
2023/02/06 04:00:06;;;;;;;8.10;5.27;;;;;;;;;;5081416;28;20039;-67
2023/02/06 04:02:38;;;;;;;10.80;5.40;;;;;;;;;;5099771;28;20031;-67
2023/02/06 04:05:04;;;;;;;7.13;4.70;;;;;;;;;;5081706;28;20384;-67
2023/02/06 04:07:37;;;;;;;8.20;5.30;;;;;;;;;;5081675;28;20035;-66
2023/02/06 04:10:03;;;;;;;9.97;5.33;;;;;;;;;;5082119;28;20070;-67
2023/02/06 04:12:30;;;;;;;11.00;5.20;;;;;;;;;;5098724;28;20027;-67
2023/02/06 04:14:55;;;;;;;9.20;5.03;;;;;;;;;;5081548;28;20593;-67
2023/02/06 04:17:21;;;;;;;9.40;5.40;;;;;;;;;;5081478;28;20054;-67
2023/02/06 04:19:47;;;;;;;10.20;5.13;;;;;;;;;;5081044;28;20060;-67
2023/02/06 04:22:14;;;;;;;9.33;5.43;;;;;;;;;;5080967;28;20062;-67
2023/02/06 04:24:40;;;;;;;7.97;5.13;;;;;;;;;;5080901;28;20473;-67
2023/02/06 04:27:10;;;;;;;8.90;5.77;;;;;;;;;;5080966;28;20368;-67
2023/02/06 04:29:35;;;;;;;9.93;4.87;;;;;;;;;;5080794;28;20337;-67
2023/02/06 04:32:02;;;;;;;8.93;4.87;;;;;;;;;;5080734;28;20524;-67
2023/02/06 04:34:30;;;;;;;8.33;4.87;;;;;;;;;;5080841;28;20196;-67
2023/02/06 04:36:56;;;;;;;9.90;5.83;;;;;;;;;;5080734;28;20043;-68
2023/02/06 04:39:22;;;;;;;11.23;5.87;;;;;;;;;;5080909;28;20027;-67
2023/02/06 04:41:47;;;;;;;9.03;5.10;;;;;;;;;;5080605;28;20484;-67
2023/02/06 04:44:13;;;;;;;7.87;5.10;;;;;;;;;;5080569;28;20481;-67
2023/02/06 04:46:38;;;;;;;10.57;5.73;;;;;;;;;;5080715;28;20031;-67
2023/02/06 04:49:04;;;;;;;10.90;5.60;;;;;;;;;;5080769;28;20035;-67
2023/02/06 04:51:30;;;;;;;14.20;7.47;;;;;;;;;;5080567;28;20123;-67
2023/02/06 04:53:55;;;;;;;13.47;6.80;;;;;;;;;;5080881;27;20542;-67
2023/02/06 04:56:21;;;;;;;8.53;5.30;;;;;;;;;;5083848;27;20504;-67
2023/02/06 04:58:46;;;;;;;9.73;5.37;;;;;;;;;;5084276;27;20032;-67
2023/02/06 05:01:12;;;;;;;8.17;4.63;;;;;;;;;;5118098;27;20031;-67
2023/02/06 05:03:38;;;;;;;7.77;5.33;;;;;;;;;;5083963;27;20469;-67
2023/02/06 05:06:03;;;;;;;8.00;5.00;;;;;;;;;;5083884;27;20058;-67
2023/02/06 05:08:29;;;;;;;7.80;4.97;;;;;;;;;;5083948;27;20027;-67
2023/02/06 05:10:55;;;;;;;10.10;5.73;;;;;;;;;;5084059;27;20023;-67
2023/02/06 05:13:20;;;;;;;7.70;4.87;;;;;;;;;;5083930;27;20035;-67
2023/02/06 05:15:46;;;;;;;8.17;4.70;;;;;;;;;;5080355;28;20051;-67
2023/02/06 05:18:12;;;;;;;9.03;5.43;;;;;;;;;;5080449;28;20040;-67
2023/02/06 05:20:38;;;;;;;7.77;5.00;;;;;;;;;;5080299;28;20043;-67
2023/02/06 05:23:03;;;;;;;8.97;4.70;;;;;;;;;;5080378;28;20125;-68
2023/02/06 05:25:29;;;;;;;6.60;4.47;;;;;;;;;;5080281;28;20031;-67
2023/02/06 05:27:56;;;;;;;6.47;4.47;;;;;;;;;;5080455;28;20032;-67
2023/02/06 05:30:22;;;;;;;8.23;4.60;;;;;;;;;;5080093;28;20043;-67
2023/02/06 05:32:47;;;;;;;7.23;4.57;;;;;;;;;;5080058;28;20038;-67
2023/02/06 05:35:13;;;;;;;7.63;4.80;;;;;;;;;;5080100;28;20385;-67
2023/02/06 05:37:39;;;;;;;8.33;4.73;;;;;;;;;;5079994;28;20050;-67
2023/02/06 05:40:05;;;;;;;7.93;4.63;;;;;;;;;;5079819;28;20044;-67
2023/02/06 05:42:30;;;;;;;8.00;4.97;;;;;;;;;;5097090;28;20039;-67
2023/02/06 05:44:56;;;;;;;10.03;4.80;;;;;;;;;;5080178;28;20035;-67
2023/02/06 05:47:22;;;;;;;9.30;4.87;;;;;;;;;;5079892;28;20050;-67
2023/02/06 05:49:48;;;;;;;7.93;4.80;;;;;;;;;;5079760;28;20031;-67
2023/02/06 05:52:14;;;;;;;7.50;5.03;;;;;;;;;;5079848;28;20088;-67
2023/02/06 05:54:39;;;;;;;7.00;4.60;;;;;;;;;;5096757;28;20478;-67
2023/02/06 05:57:05;;;;;;;6.93;4.80;;;;;;;;;;5113528;28;20049;-67
2023/02/06 05:59:31;;;;;;;8.40;5.60;;;;;;;;;;5096483;28;20123;-67
2023/02/06 06:01:56;;;;;;;7.57;4.77;;;;;;;;;;5079623;28;20126;-67
2023/02/06 06:04:22;;;;;;;8.20;5.17;;;;;;;;;;5079399;28;20043;-67
2023/02/06 06:06:47;;;;;;;9.10;5.67;;;;;;;;;;5078557;28;20088;-67
2023/02/06 06:09:13;;;;;;;7.77;4.97;;;;;;;;;;5079236;28;20036;-67
2023/02/06 06:11:39;;;;;;;7.60;5.03;;;;;;;;;;5079290;28;20062;-67
2023/02/06 06:14:05;;;;;;;9.03;5.17;;;;;;;;;;5079175;28;20043;-67
2023/02/06 06:16:30;;;;;;;7.87;5.33;;;;;;;;;;5096153;28;20048;-67
2023/02/06 06:18:56;;;;;;;9.37;5.40;;;;;;;;;;5079198;28;20445;-67
2023/02/06 06:21:22;;;;;;;8.87;5.10;;;;;;;;;;5096208;28;20470;-67
2023/02/06 06:23:48;;;;;;;8.53;5.20;;;;;;;;;;5112907;28;20035;-67
2023/02/06 06:26:14;;;;;;;10.00;6.03;;;;;;;;;;5112925;28;20041;-67
2023/02/06 06:28:39;;;;;;;9.60;5.73;;;;;;;;;;5079214;28;20032;-67
2023/02/06 06:31:06;;;;;;;7.40;5.13;;;;;;;;;;5096021;28;20545;-67
2023/02/06 06:33:32;;;;;;;9.63;5.60;;;;;;;;;;5096305;28;20024;-67
2023/02/06 06:35:58;;;;;;;9.07;5.83;;;;;;;;;;5078952;28;20039;-67
2023/02/06 06:38:23;;;;;;;10.00;5.97;;;;;;;;;;5078900;28;21092;-67
2023/02/06 06:40:49;;;;;;;8.27;5.30;;;;;;;;;;5078689;28;20035;-67
2023/02/06 06:43:14;;;;;;;9.97;6.10;;;;;;;;;;5078727;28;20102;-67
2023/02/06 06:45:40;;;;;;;9.13;5.70;;;;;;;;;;5112492;28;20054;-67
2023/02/06 06:48:08;;;;;;;11.57;5.80;;;;;;;;;;5078667;28;20120;-68
2023/02/06 06:50:34;;;;;;;11.47;5.80;;;;;;;;;;5078708;28;20035;-67
2023/02/06 06:52:59;;;;;;;9.87;5.83;;;;;;;;;;5078780;28;20027;-67
2023/02/06 06:55:25;;;;;;;10.27;5.50;;;;;;;;;;5078331;28;20040;-67
2023/02/06 06:57:50;;;;;;;10.00;5.60;;;;;;;;;;5078531;28;20393;-67
2023/02/06 07:00:16;;;;;;;11.47;6.50;;;;;;;;;;5078490;28;20035;-69
2023/02/06 07:02:42;;;;;;;8.83;5.67;;;;;;;;;;5078578;28;20059;-67
2023/02/06 07:05:08;;;;;;;9.70;5.03;;;;;;;;;;5078425;28;20044;-67
2023/02/06 07:07:33;;;;;;;8.83;5.80;;;;;;;;;;5078477;28;20347;-67
2023/02/06 07:09:59;;;;;;;7.90;4.93;;;;;;;;;;5112383;28;20461;-67
2023/02/06 07:12:25;;;;;;;8.73;5.83;;;;;;;;;;5078377;28;20035;-67
2023/02/06 07:14:51;;;;;;;14.17;6.33;;;;;;;;;;5078027;28;20128;-67
2023/02/06 07:17:17;;;;;;;10.00;6.07;;;;;;;;;;5078027;28;20064;-67
2023/02/06 07:19:46;;;;;;;13.17;6.83;;;;;;;;;;5078213;28;20035;-67
2023/02/06 07:22:13;;;;;;;11.90;6.93;;;;;;;;;;5078124;28;20164;-67
2023/02/06 07:24:38;;;;;;;9.50;5.97;;;;;;;;;;5078056;28;20042;-67
2023/02/06 07:27:04;;;;;;;11.63;6.07;;;;;;;;;;5078333;28;20373;-67
2023/02/06 07:29:30;;;;;;;9.43;6.07;;;;;;;;;;5095070;28;20114;-67
2023/02/06 07:31:58;;;;;;;11.53;6.90;;;;;;;;;;5111764;28;20055;-67
2023/02/06 07:34:23;;;;;;;9.80;6.30;;;;;;;;;;5078115;28;20032;-67
2023/02/06 07:36:49;;;;;;;18.40;6.80;;;;;;;;;;5071493;28;20036;-67
2023/02/06 07:39:15;;;;;;;14.17;7.50;;;;;;;;;;5054746;28;20044;-70
2023/02/06 07:41:41;;;;;;;12.37;7.53;;;;;;;;;;5058861;28;20032;-69
2023/02/06 07:44:09;;;;;;;16.67;7.67;;;;;;;;;;5093501;28;20577;-69
2023/02/06 07:46:34;;;;;;;10.80;6.67;;;;;;;;;;5077062;28;20088;-69
2023/02/06 07:49:00;;;;;;;11.40;6.30;;;;;;;;;;5093189;28;20427;-70
2023/02/06 07:51:26;;;;;;;8.67;5.73;;;;;;;;;;5082830;28;20078;-70
2023/02/06 07:53:51;;;;;;;11.23;6.50;;;;;;;;;;5075236;28;20031;-69
2023/02/06 07:56:18;;;;;;;11.03;6.03;;;;;;;;;;5076728;28;20097;-70
2023/02/06 07:58:48;;;;;;;10.10;5.97;;;;;;;;;;5076750;28;20085;-70
2023/02/06 08:01:13;;;;;;;10.90;6.30;;;;;;;;;;5110384;28;20105;-68
2023/02/06 08:03:39;;;;;;;8.90;5.80;;;;;;;;;;5076637;28;20373;-68
2023/02/06 08:06:08;;;;;;;8.10;4.80;;;;;;;;;;5076880;28;20062;-70
2023/02/06 08:08:34;;;;;;;8.23;5.17;;;;;;;;;;5093736;28;20390;-70
2023/02/06 08:11:03;;;;;;;6.27;4.53;;;;;;;;;;5110241;28;20043;-70
2023/02/06 08:13:29;;;;;;;8.63;5.17;;;;;;;;;;5110711;28;20047;-69
2023/02/06 08:15:55;;;;;;;8.30;5.17;;;;;;;;;;5076331;28;20481;-69
2023/02/06 08:18:20;;;;;;;11.00;4.77;;;;;;;;;;5110349;28;20042;-69
2023/02/06 08:20:46;;;;;;;8.33;4.83;;;;;;;;;;5076362;28;20147;-63
2023/02/06 08:23:11;;;;;;;8.50;5.67;;;;;;;;;;5110029;28;20028;-64
2023/02/06 08:25:37;;;;;;;9.73;5.53;;;;;;;;;;5076865;28;20040;-64
2023/02/06 08:28:02;;;;;;;8.87;5.10;;;;;;;;;;5111370;28;20031;-64
2023/02/06 08:30:28;;;;;;;8.20;5.60;;;;;;;;;;5095541;28;20038;-64
2023/02/06 08:32:53;;;;;;;13.90;5.50;;;;;;;;;;5113162;28;20035;-65
2023/02/06 08:35:19;;;;;;;8.47;5.20;;;;;;;;;;5113466;28;20417;-64
2023/02/06 08:37:45;;;;;;;8.73;5.33;;;;;;;;;;5079448;28;20055;-64
2023/02/06 08:40:10;;;;;;;10.40;5.33;;;;;;;;;;5062763;28;20176;-65
2023/02/06 08:42:36;;;;;;;7.37;5.40;;;;;;;;;;5112889;28;20035;-65
2023/02/06 08:45:01;;;;;;;8.60;5.13;;;;;;;;;;5113208;28;20615;-64
2023/02/06 08:47:30;;;;;;;7.43;5.17;;;;;;;;;;5096784;28;20043;-65
2023/02/06 08:49:55;;;;;;;11.73;5.43;;;;;;;;;;5113612;28;20043;-65
2023/02/06 08:52:22;;;;;;;13.47;6.80;;;;;;;;;;5096384;28;20035;-66
2023/02/06 08:54:49;;;;;;;12.30;6.27;;;;;;;;;;5096665;28;20043;-67
2023/02/06 08:57:14;;;;;;;9.47;5.37;;;;;;;;;;5114090;28;20067;-66
2023/02/06 08:59:40;;;;;;;10.80;5.80;;;;;;;;;;5096226;28;20031;-67
2023/02/06 09:02:06;;;;;;;11.60;5.97;;;;;;;;;;5096186;28;20505;-66
2023/02/06 09:04:34;;;;;;;9.30;6.27;;;;;;;;;;5096309;28;20039;-66
2023/02/06 09:06:59;;;;;;;11.13;5.90;;;;;;;;;;5079183;28;20036;-66
2023/02/06 09:09:25;;;;;;;8.83;5.60;;;;;;;;;;5096236;28;20491;-65
2023/02/06 09:11:52;;;;;;;9.33;5.43;;;;;;;;;;5078302;28;20035;-66
2023/02/06 09:14:17;;;;;;;8.77;5.73;;;;;;;;;;5079276;28;20036;-66
2023/02/06 09:16:43;;;;;;;9.47;5.70;;;;;;;;;;5082433;27;20161;-66
2023/02/06 09:19:09;;;;;;;9.20;6.03;;;;;;;;;;5083058;27;20031;-66
2023/02/06 09:21:35;;;;;;;8.53;5.50;;;;;;;;;;5082850;27;20031;-66
2023/02/06 09:24:02;;;;;;;9.87;5.50;;;;;;;;;;5082299;27;20373;-66
2023/02/06 09:26:29;;;;;;;9.87;6.17;;;;;;;;;;5082493;27;20039;-65
2023/02/06 09:28:56;;;;;;;8.57;5.30;;;;;;;;;;5098882;27;20479;-66
2023/02/06 09:31:29;;;;;;;8.10;5.10;;;;;;;;;;5116463;27;20027;-66
2023/02/06 09:33:55;;;;;;;9.17;5.13;;;;;;;;;;5099396;27;20039;-66
2023/02/06 09:36:21;;;;;;;15.60;6.40;;;;;;;;;;5115955;27;20042;-67
2023/02/06 09:38:48;;;;;;;12.33;6.20;;;;;;;;;;5082128;27;20031;-66
2023/02/06 09:41:22;;;;;;;9.13;5.20;;;;;;;;;;5080901;27;20348;-65
2023/02/06 09:43:52;;;;;;;10.83;5.73;;;;;;;;;;5099012;27;20035;-65
2023/02/06 09:46:22;;;;;;;11.87;5.83;;;;;;;;;;5099016;27;20054;-67
2023/02/06 09:48:48;;;;;;;8.83;5.83;;;;;;;;;;5081948;27;20443;-67
2023/02/06 09:51:17;;;;;;;10.50;5.97;;;;;;;;;;5077553;28;20050;-67
2023/02/06 09:54:04;;;;;;;10.40;6.47;;;;;;;;;;5078394;28;20048;-65
2023/02/06 09:56:29;;;;;;;9.73;5.73;;;;;;;;;;5095307;28;20032;-65
2023/02/06 09:58:58;;;;;;;8.63;5.03;;;;;;;;;;5061490;28;20059;-65
2023/02/06 10:01:30;;;;;;;7.83;5.07;;;;;;;;;;5066694;27;20049;-65
2023/02/06 10:04:00;;;;;;;7.47;5.27;;;;;;;;;;5098312;27;20141;-65
2023/02/06 10:06:28;;;;;;;9.95;5.38;;;;;;;;;;5098505;27;20027;-66
2023/02/06 10:08:56;;;;;;;7.90;5.00;;;;;;;;;;5098393;27;20373;-65
2023/02/06 10:11:30;;;;;;;8.73;5.43;;;;;;;;;;5115269;27;20062;-65
2023/02/06 10:13:57;;;;;;;9.57;5.20;;;;;;;;;;5098276;27;20053;-65
2023/02/06 10:16:31;;;;;;;9.97;5.97;;;;;;;;;;5114948;27;20058;-64
2023/02/06 10:18:59;;;;;;;7.43;5.13;;;;;;;;;;5098051;27;20457;-64
2023/02/06 10:21:37;;;;;;;9.17;5.20;;;;;;;;;;5081295;27;20431;-63
2023/02/06 10:24:18;;;;;;;10.47;5.60;;;;;;;;;;5081129;27;20027;-64
2023/02/06 10:26:45;;;;;;;10.85;6.22;;;;;;;;;;5098295;27;20038;-64
2023/02/06 10:29:14;;;;;;;10.23;5.17;;;;;;;;;;5098201;27;20354;-64
2023/02/06 10:31:58;;;;;;;11.90;6.13;;;;;;;;;;5133458;27;20082;-65
2023/02/06 10:34:50;;;;;;;8.03;5.50;;;;;;;;;;5132236;27;20491;-65
2023/02/06 10:37:25;;;;;;;8.63;5.40;;;;;;;;;;5094908;27;20801;-64
2023/02/06 10:39:55;;;;;;;12.40;6.00;;;;;;;;;;5114803;27;20079;-65
2023/02/06 10:42:21;;;;;;;;;;;;;;;;;;5081671;27;20039;-66
2023/02/06 10:44:47;;;;;;;9.70;4.73;;;;;;;;;;5114178;27;19934;-66
2023/02/06 10:47:29;;;;;;;9.40;4.87;;;;;;;;;;5113970;27;20027;-66
2023/02/06 10:50:00;;;;;;;8.52;4.97;;;;;;;;;;5080288;27;20080;-67
2023/02/06 10:52:27;;;;;;;9.55;4.75;;;;;;;;;;5096869;27;20031;-66
2023/02/06 10:54:58;;;;;;;9.80;5.00;;;;;;;;;;5079822;27;20034;-66
2023/02/06 10:57:27;;;;;;;7.65;4.72;;;;;;;;;;5114113;27;20134;-68
2023/02/06 10:59:55;;;;;;;8.37;4.80;;;;;;;;;;5096893;27;20031;-66
2023/02/06 11:02:26;;;;;;;7.50;4.97;;;;;;;;;;5097125;27;20039;-66
2023/02/06 11:04:59;;;;;;;11.05;4.97;;;;;;;;;;5079789;27;20095;-66
2023/02/06 11:07:28;;;;;;;9.07;5.27;;;;;;;;;;5105850;27;20030;-65
2023/02/06 11:09:54;;;;;;;15.10;4.93;;;;;;;;;;5134265;27;20041;-66
2023/02/06 11:12:26;;;;;;;8.47;5.03;;;;;;;;;;5132738;27;20392;-66
2023/02/06 11:14:53;;;;;;;8.07;5.13;;;;;;;;;;5116811;27;20190;-66
2023/02/06 11:17:21;;;;;;;8.33;5.40;;;;;;;;;;5151986;27;20050;-66
2023/02/06 11:19:47;;;;;;;8.33;5.43;;;;;;;;;;5151739;27;20042;-67
2023/02/06 11:22:15;;;;;;;6.93;4.97;;;;;;;;;;5117044;27;20034;-70
2023/02/06 11:24:59;;;;;;;8.53;4.33;;;;;;;;;;5134553;27;20031;-67
2023/02/06 11:27:25;;;;;;;8.47;4.93;;;;;;;;;;5116929;27;20134;-66
2023/02/06 11:29:51;;;;;;;11.43;4.90;;;;;;;;;;5133786;27;20492;-67
2023/02/06 11:32:30;;;;;;;11.20;5.10;;;;;;;;;;5116767;27;20049;-67
2023/02/06 11:34:57;;;;;;;6.97;4.50;;;;;;;;;;5133848;27;20117;-67
2023/02/06 11:37:37;;;;;;;8.70;4.83;;;;;;;;;;5115762;27;20042;-67
2023/02/06 11:40:18;;;;;;;7.93;4.60;;;;;;;;;;5116964;27;20035;-67
2023/02/06 11:42:48;;;;;;;11.65;4.90;;;;;;;;;;5117290;27;20138;-66
2023/02/06 11:45:30;;;;;;;7.97;4.80;;;;;;;;;;5100421;27;20129;-67
2023/02/06 11:47:56;;;;;;;8.47;5.23;;;;;;;;;;5134580;27;20039;-67
2023/02/06 11:50:33;;;;;;;8.17;4.97;;;;;;;;;;5134340;27;20142;-67
2023/02/06 11:53:10;;;;;;;8.83;4.80;;;;;;;;;;5091266;28;20081;-66
2023/02/06 11:55:36;;;;;;;11.33;4.77;;;;;;;;;;5092629;28;20039;-65
2023/02/06 11:58:02;;;;;;;11.17;5.73;;;;;;;;;;5075858;28;20397;-66
2023/02/06 12:00:28;;;;;;;9.27;4.80;;;;;;;;;;5074528;28;20039;-66
2023/02/06 12:02:54;;;;;;;9.83;4.93;;;;;;;;;;5092920;28;20031;-66
2023/02/06 12:05:21;;;;;;;7.50;5.20;;;;;;;;;;5094799;28;20031;-66
2023/02/06 12:07:59;;;;;;;8.00;5.10;;;;;;;;;;5097009;28;20035;-66
2023/02/06 12:10:25;;;;;;;7.53;5.00;;;;;;;;;;5114130;28;20047;-65
2023/02/06 12:12:52;;;;;;;7.87;5.30;;;;;;;;;;5079001;28;20031;-66
2023/02/06 12:15:22;;;;;;;9.60;4.90;;;;;;;;;;5114007;28;20060;-65
2023/02/06 12:18:00;;;;;;;8.17;4.97;;;;;;;;;;5113466;28;20389;-66
2023/02/06 12:20:31;;;;;;;7.57;4.97;;;;;;;;;;5096724;28;20509;-66
2023/02/06 12:23:04;;;;;;;12.80;5.40;;;;;;;;;;5096429;28;20042;-67
2023/02/06 12:25:35;;;;;;;6.83;4.90;;;;;;;;;;5096717;28;20031;-67
2023/02/06 12:28:20;;;;;;;8.05;5.18;;;;;;;;;;5096581;28;20495;-65
2023/02/06 12:31:15;;;;;;;9.30;6.00;;;;;;;;;;5098606;28;20081;-67
2023/02/06 12:33:43;;;;;;;9.07;5.80;;;;;;;;;;5079807;28;20031;-66
2023/02/06 12:43:02;;;;;;;8.83;5.03;;;;;;;;;;5095535;28;20493;-67
2023/02/06 12:45:30;;;;;;;6.43;4.33;;;;;;;;;;5114155;28;20039;-67
2023/02/06 12:47:55;;;;;;;8.87;4.97;;;;;;;;;;5063332;28;20032;-66
2023/02/06 12:50:27;;;;;;;9.83;4.60;;;;;;;;;;5079778;28;20495;-66
2023/02/06 12:52:59;;;;;;;9.63;5.17;;;;;;;;;;5096230;28;20130;-66
2023/02/06 12:55:37;;;;;;;9.70;5.60;;;;;;;;;;5096577;28;20035;-66
2023/02/06 12:58:03;;;;;;;10.97;5.73;;;;;;;;;;5095766;28;20594;-67
2023/02/06 13:00:48;;;;;;;9.33;5.73;;;;;;;;;;5095910;28;20043;-66
2023/02/06 13:03:22;;;;;;;8.30;5.40;;;;;;;;;;5078964;28;20039;-67
2023/02/06 13:05:51;;;;;;;8.57;5.53;;;;;;;;;;5096240;28;20027;-67
2023/02/06 13:08:26;;;;;;;10.00;5.50;;;;;;;;;;5096513;28;20159;-66
2023/02/06 13:11:03;;;;;;;14.37;5.73;;;;;;;;;;5096248;28;20035;-66
2023/02/06 13:13:34;;;;;;;13.73;6.27;;;;;;;;;;5062409;28;20035;-65
2023/02/06 13:16:00;;;;;;;12.90;5.90;;;;;;;;;;5112653;28;20058;-67
2023/02/06 13:18:40;;;;;;;15.87;5.77;;;;;;;;;;5062541;28;20178;-66
2023/02/06 13:21:21;;;;;;;9.02;6.28;;;;;;;;;;5062231;28;20100;-66
2023/02/06 13:23:50;;;;;;;11.13;6.50;;;;;;;;;;5096006;28;20574;-67
2023/02/06 13:26:16;;;;;;;12.17;6.20;;;;;;;;;;5095737;28;20046;-66
2023/02/06 13:28:45;;;;;;;11.57;6.50;;;;;;;;;;5096194;28;20031;-66
2023/02/06 13:31:24;;;;;;;15.80;6.30;;;;;;;;;;5113192;28;20043;-67
2023/02/06 13:33:52;;;;;;;9.33;5.90;;;;;;;;;;5112940;28;20036;-67
2023/02/06 13:36:26;;;;;;;10.13;6.23;;;;;;;;;;5094635;28;20024;-66
2023/02/06 13:38:55;;;;;;;11.17;5.87;;;;;;;;;;5093638;28;20538;-67
2023/02/06 13:41:29;;;;;;;11.37;6.23;;;;;;;;;;5110489;28;20043;-67
2023/02/06 13:44:14;;;;;;;10.77;5.60;;;;;;;;;;5095531;28;20040;-66
2023/02/06 13:46:50;;;;;;;8.50;5.70;;;;;;;;;;5062672;28;20027;-65
2023/02/06 13:49:35;;;;;;;12.27;6.33;;;;;;;;;;5096077;28;20035;-66
2023/02/06 13:52:07;;;;;;;9.17;5.83;;;;;;;;;;5094369;28;20538;-66
2023/02/06 13:54:32;;;;;;;9.47;5.93;;;;;;;;;;5078722;28;20046;-66
2023/02/06 13:57:13;;;;;;;9.10;5.90;;;;;;;;;;5095126;28;20055;-66
2023/02/06 13:59:49;;;;;;;10.70;6.18;;;;;;;;;;5079030;28;20469;-65
2023/02/06 14:02:20;;;;;;;10.73;6.33;;;;;;;;;;5078597;28;20126;-66
2023/02/06 14:04:45;;;;;;;12.48;6.32;;;;;;;;;;5078611;28;20063;-66
2023/02/06 14:07:24;;;;;;;13.20;6.47;;;;;;;;;;5079199;28;20054;-65
2023/02/06 14:10:08;;;;;;;8.83;5.97;;;;;;;;;;5078880;28;20031;-67
2023/02/06 14:12:43;;;;;;;12.53;6.63;;;;;;;;;;5079056;27;20530;-66
2023/02/06 14:15:30;;;;;;;11.27;6.53;;;;;;;;;;5097976;27;20055;-66
2023/02/06 14:18:02;;;;;;;11.10;6.23;;;;;;;;;;5098318;27;20047;-65
2023/02/06 14:20:40;;;;;;;9.50;6.40;;;;;;;;;;5079045;27;20104;-64
2023/02/06 14:23:17;;;;;;;15.40;7.07;;;;;;;;;;5093372;27;20057;-65
2023/02/06 14:26:02;;;;;;;13.10;7.13;;;;;;;;;;5094492;27;20508;-68
2023/02/06 14:28:35;;;;;;;12.97;6.93;;;;;;;;;;5094871;27;20548;-65
2023/02/06 14:31:18;;;;;;;16.70;7.40;;;;;;;;;;5128670;27;20381;-66
2023/02/06 14:34:04;;;;;;;13.63;7.20;;;;;;;;;;5111990;27;20023;-67
2023/02/06 14:36:35;;;;;;;11.50;6.37;;;;;;;;;;5111983;27;20065;-67
2023/02/06 14:39:21;;;;;;;14.23;7.17;;;;;;;;;;5108609;27;20535;-65
2023/02/06 14:41:47;;;;;;;14.77;7.10;;;;;;;;;;5111559;27;20035;-66
2023/02/06 14:44:17;;;;;;;12.37;6.83;;;;;;;;;;5096726;27;20038;-66
2023/02/06 14:46:43;;;;;;;17.05;7.20;;;;;;;;;;5111683;27;20369;-66
2023/02/06 14:49:14;;;;;;;14.37;8.13;;;;;;;;;;5113401;27;20031;-68
2023/02/06 14:51:40;;;;;;;23.33;8.23;;;;;;;;;;5094281;27;20037;-66
2023/02/06 14:54:26;;;;;;;15.73;8.23;;;;;;;;;;5131660;27;20121;-66
2023/02/06 14:56:56;;;;;;;14.37;7.43;;;;;;;;;;5079436;27;20046;-66